sensor_id;sensor_type;location;lat;lon;timestamp;temperature;humidity
9699;DHT22;10089;47.876;8.346;2023-06-22T00:01:28;18.10;99.90
9699;DHT22;10089;47.876;8.346;2023-06-22T00:03:53;19.10;99.90
9699;DHT22;10089;47.876;8.346;2023-06-22T00:06:19;17.60;99.90
9699;DHT22;10089;47.876;8.346;2023-06-22T00:08:45;17.80;99.90
9699;DHT22;10089;47.876;8.346;2023-06-22T00:11:11;17.40;99.90
9699;DHT22;10089;47.876;8.346;2023-06-22T00:13:37;17.90;99.90
9699;DHT22;10089;47.876;8.346;2023-06-22T00:16:03;19.80;99.90
9699;DHT22;10089;47.876;8.346;2023-06-22T00:18:29;17.50;99.90
9699;DHT22;10089;47.876;8.346;2023-06-22T00:20:55;17.40;99.90
9699;DHT22;10089;47.876;8.346;2023-06-22T00:23:24;18.60;99.90
9699;DHT22;10089;47.876;8.346;2023-06-22T00:25:51;18.70;99.90
9699;DHT22;10089;47.876;8.346;2023-06-22T00:28:17;17.40;99.90
9699;DHT22;10089;47.876;8.346;2023-06-22T00:30:42;18.80;99.90
9699;DHT22;10089;47.876;8.346;2023-06-22T00:33:08;17.40;99.90
9699;DHT22;10089;47.876;8.346;2023-06-22T00:35:34;17.40;99.90
9699;DHT22;10089;47.876;8.346;2023-06-22T00:38:00;17.50;99.90
9699;DHT22;10089;47.876;8.346;2023-06-22T00:40:27;17.80;99.90
9699;DHT22;10089;47.876;8.346;2023-06-22T00:42:54;18.30;99.90
9699;DHT22;10089;47.876;8.346;2023-06-22T00:45:20;18.50;99.90
9699;DHT22;10089;47.876;8.346;2023-06-22T00:47:52;17.30;99.90
9699;DHT22;10089;47.876;8.346;2023-06-22T00:50:23;17.30;99.90
9699;DHT22;10089;47.876;8.346;2023-06-22T00:52:55;17.20;99.90
9699;DHT22;10089;47.876;8.346;2023-06-22T00:55:24;17.10;99.90
9699;DHT22;10089;47.876;8.346;2023-06-22T00:57:52;17.30;99.90
9699;DHT22;10089;47.876;8.346;2023-06-22T01:00:24;19.50;99.90
9699;DHT22;10089;47.876;8.346;2023-06-22T01:02:54;17.30;99.90
9699;DHT22;10089;47.876;8.346;2023-06-22T01:05:21;17.30;99.90
9699;DHT22;10089;47.876;8.346;2023-06-22T01:10:35;17.20;99.90
9699;DHT22;10089;47.876;8.346;2023-06-22T01:13:13;18.80;99.90
9699;DHT22;10089;47.876;8.346;2023-06-22T01:15:46;17.20;99.90
9699;DHT22;10089;47.876;8.346;2023-06-22T01:18:16;17.10;99.90
9699;DHT22;10089;47.876;8.346;2023-06-22T01:20:42;17.00;99.90
9699;DHT22;10089;47.876;8.346;2023-06-22T01:26:32;17.00;99.90
9699;DHT22;10089;47.876;8.346;2023-06-22T01:29:00;17.00;99.90
9699;DHT22;10089;47.876;8.346;2023-06-22T01:31:29;17.20;99.90
9699;DHT22;10089;47.876;8.346;2023-06-22T01:34:05;17.10;99.90
9699;DHT22;10089;47.876;8.346;2023-06-22T01:36:33;17.00;99.90
9699;DHT22;10089;47.876;8.346;2023-06-22T01:38:59;16.20;99.90
9699;DHT22;10089;47.876;8.346;2023-06-22T01:41:26;17.00;99.90
9699;DHT22;10089;47.876;8.346;2023-06-22T01:43:53;17.00;99.90
9699;DHT22;10089;47.876;8.346;2023-06-22T01:46:20;17.40;99.90
9699;DHT22;10089;47.876;8.346;2023-06-22T01:48:47;17.00;99.90
9699;DHT22;10089;47.876;8.346;2023-06-22T01:51:13;19.20;99.90
9699;DHT22;10089;47.876;8.346;2023-06-22T01:53:39;18.80;99.90
9699;DHT22;10089;47.876;8.346;2023-06-22T01:56:05;16.90;99.90
9699;DHT22;10089;47.876;8.346;2023-06-22T01:58:32;19.00;99.90
9699;DHT22;10089;47.876;8.346;2023-06-22T02:01:10;17.80;99.90
9699;DHT22;10089;47.876;8.346;2023-06-22T02:03:51;17.00;99.90
9699;DHT22;10089;47.876;8.346;2023-06-22T02:06:23;17.10;99.90
9699;DHT22;10089;47.876;8.346;2023-06-22T02:08:55;17.00;99.90
9699;DHT22;10089;47.876;8.346;2023-06-22T02:11:22;16.90;99.90
9699;DHT22;10089;47.876;8.346;2023-06-22T02:13:49;16.90;99.90
9699;DHT22;10089;47.876;8.346;2023-06-22T02:16:16;17.50;99.90
9699;DHT22;10089;47.876;8.346;2023-06-22T02:18:48;18.40;99.90
9699;DHT22;10089;47.876;8.346;2023-06-22T02:21:16;17.00;99.90
9699;DHT22;10089;47.876;8.346;2023-06-22T02:23:42;16.90;99.90
9699;DHT22;10089;47.876;8.346;2023-06-22T02:26:08;17.70;99.90
9699;DHT22;10089;47.876;8.346;2023-06-22T02:28:34;17.10;99.90
9699;DHT22;10089;47.876;8.346;2023-06-22T02:30:59;18.00;99.90
9699;DHT22;10089;47.876;8.346;2023-06-22T02:33:25;18.60;99.90
9699;DHT22;10089;47.876;8.346;2023-06-22T02:35:51;17.00;99.90
9699;DHT22;10089;47.876;8.346;2023-06-22T02:38:17;17.30;99.90
9699;DHT22;10089;47.876;8.346;2023-06-22T02:40:43;17.50;99.90
9699;DHT22;10089;47.876;8.346;2023-06-22T02:43:08;19.30;99.90
9699;DHT22;10089;47.876;8.346;2023-06-22T02:45:34;16.90;99.90
9699;DHT22;10089;47.876;8.346;2023-06-22T02:48:00;16.80;99.90
9699;DHT22;10089;47.876;8.346;2023-06-22T02:50:26;16.70;99.90
9699;DHT22;10089;47.876;8.346;2023-06-22T02:52:55;19.10;99.90
9699;DHT22;10089;47.876;8.346;2023-06-22T02:55:21;17.00;99.90
9699;DHT22;10089;47.876;8.346;2023-06-22T02:57:46;16.70;99.90
9699;DHT22;10089;47.876;8.346;2023-06-22T03:00:14;16.70;99.90
9699;DHT22;10089;47.876;8.346;2023-06-22T03:02:47;16.80;99.90
9699;DHT22;10089;47.876;8.346;2023-06-22T03:05:16;18.40;99.90
9699;DHT22;10089;47.876;8.346;2023-06-22T03:07:44;16.70;99.90
9699;DHT22;10089;47.876;8.346;2023-06-22T03:10:14;16.60;99.90
9699;DHT22;10089;47.876;8.346;2023-06-22T03:12:41;17.30;99.90
9699;DHT22;10089;47.876;8.346;2023-06-22T03:15:11;16.60;99.90
9699;DHT22;10089;47.876;8.346;2023-06-22T03:17:38;18.50;99.90
9699;DHT22;10089;47.876;8.346;2023-06-22T03:20:06;17.80;99.90
9699;DHT22;10089;47.876;8.346;2023-06-22T03:22:40;16.60;99.90
9699;DHT22;10089;47.876;8.346;2023-06-22T03:25:07;16.70;99.90
9699;DHT22;10089;47.876;8.346;2023-06-22T03:27:38;16.60;99.90
9699;DHT22;10089;47.876;8.346;2023-06-22T03:30:06;17.90;99.90
9699;DHT22;10089;47.876;8.346;2023-06-22T03:32:32;16.80;99.90
9699;DHT22;10089;47.876;8.346;2023-06-22T03:35:00;16.60;99.90
9699;DHT22;10089;47.876;8.346;2023-06-22T03:37:27;16.70;99.90
9699;DHT22;10089;47.876;8.346;2023-06-22T03:39:55;17.40;99.90
9699;DHT22;10089;47.876;8.346;2023-06-22T03:42:21;18.80;99.90
9699;DHT22;10089;47.876;8.346;2023-06-22T03:44:47;16.40;99.90
9699;DHT22;10089;47.876;8.346;2023-06-22T03:47:16;17.60;99.90
9699;DHT22;10089;47.876;8.346;2023-06-22T03:49:42;16.50;99.90
9699;DHT22;10089;47.876;8.346;2023-06-22T03:52:10;16.60;99.90
9699;DHT22;10089;47.876;8.346;2023-06-22T03:54:42;16.30;99.90
9699;DHT22;10089;47.876;8.346;2023-06-22T03:57:08;16.90;99.90
9699;DHT22;10089;47.876;8.346;2023-06-22T03:59:37;16.90;99.90
9699;DHT22;10089;47.876;8.346;2023-06-22T04:02:08;17.90;99.90
9699;DHT22;10089;47.876;8.346;2023-06-22T04:04:35;17.00;99.90
9699;DHT22;10089;47.876;8.346;2023-06-22T04:07:01;16.70;99.90
9699;DHT22;10089;47.876;8.346;2023-06-22T04:09:30;16.50;99.90
9699;DHT22;10089;47.876;8.346;2023-06-22T04:11:55;16.90;99.90
9699;DHT22;10089;47.876;8.346;2023-06-22T04:14:21;16.90;99.90
9699;DHT22;10089;47.876;8.346;2023-06-22T04:16:47;18.20;99.90
9699;DHT22;10089;47.876;8.346;2023-06-22T04:19:18;19.30;99.90
9699;DHT22;10089;47.876;8.346;2023-06-22T04:21:44;17.10;99.90
9699;DHT22;10089;47.876;8.346;2023-06-22T04:24:12;17.00;99.90
9699;DHT22;10089;47.876;8.346;2023-06-22T04:26:38;17.10;99.90
9699;DHT22;10089;47.876;8.346;2023-06-22T04:39:34;17.30;99.90
9699;DHT22;10089;47.876;8.346;2023-06-22T04:42:00;19.40;99.90
9699;DHT22;10089;47.876;8.346;2023-06-22T04:44:31;19.00;99.90
9699;DHT22;10089;47.876;8.346;2023-06-22T04:46:58;18.40;99.90
9699;DHT22;10089;47.876;8.346;2023-06-22T04:49:32;18.10;99.90
9699;DHT22;10089;47.876;8.346;2023-06-22T04:52:10;18.60;99.90
9699;DHT22;10089;47.876;8.346;2023-06-22T04:54:37;20.30;99.90
9699;DHT22;10089;47.876;8.346;2023-06-22T04:57:19;18.10;99.90
9699;DHT22;10089;47.876;8.346;2023-06-22T04:59:49;18.50;99.90
9699;DHT22;10089;47.876;8.346;2023-06-22T05:02:15;20.70;99.90
9699;DHT22;10089;47.876;8.346;2023-06-22T05:04:41;18.50;99.90
9699;DHT22;10089;47.876;8.346;2023-06-22T05:07:07;19.90;99.90
9699;DHT22;10089;47.876;8.346;2023-06-22T05:09:32;19.50;99.90
9699;DHT22;10089;47.876;8.346;2023-06-22T05:11:59;19.10;99.90
9699;DHT22;10089;47.876;8.346;2023-06-22T05:14:47;19.60;99.90
9699;DHT22;10089;47.876;8.346;2023-06-22T05:17:13;19.50;99.90
9699;DHT22;10089;47.876;8.346;2023-06-22T05:19:40;19.70;99.90
9699;DHT22;10089;47.876;8.346;2023-06-22T05:22:10;20.00;99.90
9699;DHT22;10089;47.876;8.346;2023-06-22T05:24:37;22.40;99.90
9699;DHT22;10089;47.876;8.346;2023-06-22T05:27:03;20.10;99.90
9699;DHT22;10089;47.876;8.346;2023-06-22T05:29:29;19.20;99.90
9699;DHT22;10089;47.876;8.346;2023-06-22T05:31:55;20.30;99.90
9699;DHT22;10089;47.876;8.346;2023-06-22T05:34:20;20.30;99.90
9699;DHT22;10089;47.876;8.346;2023-06-22T05:36:46;20.40;99.90
9699;DHT22;10089;47.876;8.346;2023-06-22T05:39:15;20.30;99.90
9699;DHT22;10089;47.876;8.346;2023-06-22T05:41:40;20.80;99.90
9699;DHT22;10089;47.876;8.346;2023-06-22T05:44:06;21.00;99.90
9699;DHT22;10089;47.876;8.346;2023-06-22T05:46:32;20.80;99.90
9699;DHT22;10089;47.876;8.346;2023-06-22T05:48:58;21.10;99.90
9699;DHT22;10089;47.876;8.346;2023-06-22T05:51:24;21.80;99.90
9699;DHT22;10089;47.876;8.346;2023-06-22T05:53:49;21.70;58.70
9699;DHT22;10089;47.876;8.346;2023-06-22T05:56:16;21.60;94.80
9699;DHT22;10089;47.876;8.346;2023-06-22T05:58:41;19.60;99.90
9699;DHT22;10089;47.876;8.346;2023-06-22T06:01:07;22.30;7.60
9699;DHT22;10089;47.876;8.346;2023-06-22T06:03:33;22.50;1.00
9699;DHT22;10089;47.876;8.346;2023-06-22T06:05:58;23.40;1.00
9699;DHT22;10089;47.876;8.346;2023-06-22T06:08:25;22.70;1.00
9699;DHT22;10089;47.876;8.346;2023-06-22T06:10:50;23.00;1.00
9699;DHT22;10089;47.876;8.346;2023-06-22T06:13:18;25.00;1.00
9699;DHT22;10089;47.876;8.346;2023-06-22T06:15:44;23.10;1.00
9699;DHT22;10089;47.876;8.346;2023-06-22T06:18:09;24.00;1.00
9699;DHT22;10089;47.876;8.346;2023-06-22T06:20:35;24.60;1.00
9699;DHT22;10089;47.876;8.346;2023-06-22T06:23:01;23.40;1.00
9699;DHT22;10089;47.876;8.346;2023-06-22T06:25:27;23.20;1.00
9699;DHT22;10089;47.876;8.346;2023-06-22T06:27:56;23.20;1.00
9699;DHT22;10089;47.876;8.346;2023-06-22T06:30:22;23.20;1.00
9699;DHT22;10089;47.876;8.346;2023-06-22T06:32:49;22.60;1.00
9699;DHT22;10089;47.876;8.346;2023-06-22T06:35:15;22.90;1.00
9699;DHT22;10089;47.876;8.346;2023-06-22T06:37:43;23.50;1.00
9699;DHT22;10089;47.876;8.346;2023-06-22T06:40:11;23.40;1.00
9699;DHT22;10089;47.876;8.346;2023-06-22T06:42:55;23.50;1.00
9699;DHT22;10089;47.876;8.346;2023-06-22T06:45:22;24.20;1.00
9699;DHT22;10089;47.876;8.346;2023-06-22T06:47:52;23.10;1.00
9699;DHT22;10089;47.876;8.346;2023-06-22T06:50:18;23.40;1.00
9699;DHT22;10089;47.876;8.346;2023-06-22T06:52:44;24.60;1.00
9699;DHT22;10089;47.876;8.346;2023-06-22T06:55:10;23.70;99.90
9699;DHT22;10089;47.876;8.346;2023-06-22T06:57:37;23.90;1.00
9699;DHT22;10089;47.876;8.346;2023-06-22T07:00:05;24.40;99.90
9699;DHT22;10089;47.876;8.346;2023-06-22T07:02:35;24.80;99.90
9699;DHT22;10089;47.876;8.346;2023-06-22T07:05:01;24.60;1.00
9699;DHT22;10089;47.876;8.346;2023-06-22T07:07:29;25.00;1.00
9699;DHT22;10089;47.876;8.346;2023-06-22T07:09:54;23.60;99.90
9699;DHT22;10089;47.876;8.346;2023-06-22T07:12:21;23.40;1.00
9699;DHT22;10089;47.876;8.346;2023-06-22T07:14:46;22.80;1.00
9699;DHT22;10089;47.876;8.346;2023-06-22T07:17:12;23.10;1.00
9699;DHT22;10089;47.876;8.346;2023-06-22T07:19:38;22.90;1.00
9699;DHT22;10089;47.876;8.346;2023-06-22T07:22:07;23.60;10.50
9699;DHT22;10089;47.876;8.346;2023-06-22T07:24:32;24.50;1.00
9699;DHT22;10089;47.876;8.346;2023-06-22T07:27:01;24.20;1.00
9699;DHT22;10089;47.876;8.346;2023-06-22T07:29:27;23.90;1.00
9699;DHT22;10089;47.876;8.346;2023-06-22T07:31:53;24.30;1.00
9699;DHT22;10089;47.876;8.346;2023-06-22T07:34:21;24.30;1.00
9699;DHT22;10089;47.876;8.346;2023-06-22T07:36:47;24.40;1.00
9699;DHT22;10089;47.876;8.346;2023-06-22T07:39:13;24.60;99.90
9699;DHT22;10089;47.876;8.346;2023-06-22T07:41:40;24.70;1.00
9699;DHT22;10089;47.876;8.346;2023-06-22T07:44:08;24.80;33.70
9699;DHT22;10089;47.876;8.346;2023-06-22T07:46:34;25.30;1.00
9699;DHT22;10089;47.876;8.346;2023-06-22T07:48:59;25.70;1.00
9699;DHT22;10089;47.876;8.346;2023-06-22T07:51:26;25.50;99.90
9699;DHT22;10089;47.876;8.346;2023-06-22T07:53:52;25.90;1.00
9699;DHT22;10089;47.876;8.346;2023-06-22T07:56:18;26.40;99.90
9699;DHT22;10089;47.876;8.346;2023-06-22T07:58:46;26.30;1.00
9699;DHT22;10089;47.876;8.346;2023-06-22T08:01:12;26.60;1.00
9699;DHT22;10089;47.876;8.346;2023-06-22T08:03:38;26.00;99.90
9699;DHT22;10089;47.876;8.346;2023-06-22T08:06:05;25.80;1.00
9699;DHT22;10089;47.876;8.346;2023-06-22T08:08:31;25.70;99.90
9699;DHT22;10089;47.876;8.346;2023-06-22T08:10:57;25.60;1.00
9699;DHT22;10089;47.876;8.346;2023-06-22T08:13:23;25.70;99.90
9699;DHT22;10089;47.876;8.346;2023-06-22T08:15:51;25.90;69.40
9699;DHT22;10089;47.876;8.346;2023-06-22T08:18:20;26.10;1.00
9699;DHT22;10089;47.876;8.346;2023-06-22T08:20:46;26.80;1.00
9699;DHT22;10089;47.876;8.346;2023-06-22T08:23:11;26.60;1.00
9699;DHT22;10089;47.876;8.346;2023-06-22T08:25:37;27.20;99.90
9699;DHT22;10089;47.876;8.346;2023-06-22T08:28:04;26.90;99.90
9699;DHT22;10089;47.876;8.346;2023-06-22T08:30:30;26.10;1.00
9699;DHT22;10089;47.876;8.346;2023-06-22T08:32:56;26.10;1.00
9699;DHT22;10089;47.876;8.346;2023-06-22T08:35:25;27.10;1.00
9699;DHT22;10089;47.876;8.346;2023-06-22T08:37:50;27.40;99.90
9699;DHT22;10089;47.876;8.346;2023-06-22T08:40:20;27.70;1.00
9699;DHT22;10089;47.876;8.346;2023-06-22T08:42:46;28.00;1.00
9699;DHT22;10089;47.876;8.346;2023-06-22T08:45:13;28.00;1.00
9699;DHT22;10089;47.876;8.346;2023-06-22T08:47:39;28.40;1.00
9699;DHT22;10089;47.876;8.346;2023-06-22T08:50:07;28.20;1.00
9699;DHT22;10089;47.876;8.346;2023-06-22T08:52:34;28.20;1.00
9699;DHT22;10089;47.876;8.346;2023-06-22T08:55:00;28.10;99.90
9699;DHT22;10089;47.876;8.346;2023-06-22T08:57:26;27.50;38.10
9699;DHT22;10089;47.876;8.346;2023-06-22T08:59:56;29.90;99.90
9699;DHT22;10089;47.876;8.346;2023-06-22T09:02:24;27.50;1.00
9699;DHT22;10089;47.876;8.346;2023-06-22T09:04:50;26.50;95.90
9699;DHT22;10089;47.876;8.346;2023-06-22T09:07:24;27.00;1.00
9699;DHT22;10089;47.876;8.346;2023-06-22T09:09:51;27.80;99.90
9699;DHT22;10089;47.876;8.346;2023-06-22T09:12:17;28.30;1.00
9699;DHT22;10089;47.876;8.346;2023-06-22T09:14:45;27.70;80.20
9699;DHT22;10089;47.876;8.346;2023-06-22T09:17:14;27.80;1.00
9699;DHT22;10089;47.876;8.346;2023-06-22T09:19:39;27.30;1.00
9699;DHT22;10089;47.876;8.346;2023-06-22T09:22:05;27.30;1.00
9699;DHT22;10089;47.876;8.346;2023-06-22T09:24:46;27.00;1.00
9699;DHT22;10089;47.876;8.346;2023-06-22T09:27:12;27.10;1.00
9699;DHT22;10089;47.876;8.346;2023-06-22T09:29:38;26.80;99.90
9699;DHT22;10089;47.876;8.346;2023-06-22T09:32:04;27.10;99.90
9699;DHT22;10089;47.876;8.346;2023-06-22T09:34:30;27.30;1.00
9699;DHT22;10089;47.876;8.346;2023-06-22T09:36:57;27.10;1.00
9699;DHT22;10089;47.876;8.346;2023-06-22T09:39:22;27.10;99.90
9699;DHT22;10089;47.876;8.346;2023-06-22T09:41:51;27.30;99.90
9699;DHT22;10089;47.876;8.346;2023-06-22T09:44:16;27.20;1.00
9699;DHT22;10089;47.876;8.346;2023-06-22T09:46:42;27.40;1.00
9699;DHT22;10089;47.876;8.346;2023-06-22T09:49:08;27.40;99.90
9699;DHT22;10089;47.876;8.346;2023-06-22T09:51:33;27.20;99.90
9699;DHT22;10089;47.876;8.346;2023-06-22T09:53:59;27.30;1.00
9699;DHT22;10089;47.876;8.346;2023-06-22T09:56:24;26.90;1.00
9699;DHT22;10089;47.876;8.346;2023-06-22T09:58:52;27.10;1.00
9699;DHT22;10089;47.876;8.346;2023-06-22T10:01:18;26.80;99.90
9699;DHT22;10089;47.876;8.346;2023-06-22T10:03:44;26.70;99.90
9699;DHT22;10089;47.876;8.346;2023-06-22T10:06:09;26.00;99.90
9699;DHT22;10089;47.876;8.346;2023-06-22T10:08:35;26.40;1.00
9699;DHT22;10089;47.876;8.346;2023-06-22T10:11:01;25.80;1.00
9699;DHT22;10089;47.876;8.346;2023-06-22T10:13:27;26.60;1.00
9699;DHT22;10089;47.876;8.346;2023-06-22T10:15:53;26.80;99.90
9699;DHT22;10089;47.876;8.346;2023-06-22T10:18:19;26.90;1.00
9699;DHT22;10089;47.876;8.346;2023-06-22T10:20:50;26.80;99.90
9699;DHT22;10089;47.876;8.346;2023-06-22T10:23:17;27.00;1.00
9699;DHT22;10089;47.876;8.346;2023-06-22T10:25:43;26.60;1.00
9699;DHT22;10089;47.876;8.346;2023-06-22T10:28:09;26.60;1.00
9699;DHT22;10089;47.876;8.346;2023-06-22T10:30:34;26.40;1.00
9699;DHT22;10089;47.876;8.346;2023-06-22T10:33:00;26.80;1.00
9699;DHT22;10089;47.876;8.346;2023-06-22T10:35:28;26.10;1.00
9699;DHT22;10089;47.876;8.346;2023-06-22T10:37:55;25.60;1.00
9699;DHT22;10089;47.876;8.346;2023-06-22T10:40:21;25.60;1.00
9699;DHT22;10089;47.876;8.346;2023-06-22T10:42:47;25.60;1.00
9699;DHT22;10089;47.876;8.346;2023-06-22T10:45:12;25.30;1.00
9699;DHT22;10089;47.876;8.346;2023-06-22T10:47:46;25.60;1.00
9699;DHT22;10089;47.876;8.346;2023-06-22T10:50:12;26.10;1.00
9699;DHT22;10089;47.876;8.346;2023-06-22T10:52:41;26.00;1.00
9699;DHT22;10089;47.876;8.346;2023-06-22T10:55:12;25.10;76.10
9699;DHT22;10089;47.876;8.346;2023-06-22T10:57:38;25.20;1.00
9699;DHT22;10089;47.876;8.346;2023-06-22T11:00:07;25.50;17.50
9699;DHT22;10089;47.876;8.346;2023-06-22T11:02:34;25.60;1.00
9699;DHT22;10089;47.876;8.346;2023-06-22T11:05:00;26.00;1.00
9699;DHT22;10089;47.876;8.346;2023-06-22T11:07:29;26.00;1.00
9699;DHT22;10089;47.876;8.346;2023-06-22T11:10:15;25.80;1.00
9699;DHT22;10089;47.876;8.346;2023-06-22T11:12:41;25.90;1.00
9699;DHT22;10089;47.876;8.346;2023-06-22T11:15:08;25.40;1.00
9699;DHT22;10089;47.876;8.346;2023-06-22T11:17:34;25.20;1.00
9699;DHT22;10089;47.876;8.346;2023-06-22T11:20:03;25.70;1.00
9699;DHT22;10089;47.876;8.346;2023-06-22T11:22:37;24.70;1.00
9699;DHT22;10089;47.876;8.346;2023-06-22T11:25:03;25.00;1.00
9699;DHT22;10089;47.876;8.346;2023-06-22T11:27:29;25.00;1.00
9699;DHT22;10089;47.876;8.346;2023-06-22T11:29:55;24.60;1.00
9699;DHT22;10089;47.876;8.346;2023-06-22T11:32:21;24.30;20.90
9699;DHT22;10089;47.876;8.346;2023-06-22T11:34:46;24.90;1.00
9699;DHT22;10089;47.876;8.346;2023-06-22T11:37:19;24.70;39.20
9699;DHT22;10089;47.876;8.346;2023-06-22T11:39:45;24.90;17.10
9699;DHT22;10089;47.876;8.346;2023-06-22T11:42:17;25.20;1.00
9699;DHT22;10089;47.876;8.346;2023-06-22T11:44:46;25.30;1.00
9699;DHT22;10089;47.876;8.346;2023-06-22T11:47:11;25.40;1.00
9699;DHT22;10089;47.876;8.346;2023-06-22T11:49:37;25.70;99.90
9699;DHT22;10089;47.876;8.346;2023-06-22T11:52:06;26.10;1.00
9699;DHT22;10089;47.876;8.346;2023-06-22T11:54:32;26.40;1.00
9699;DHT22;10089;47.876;8.346;2023-06-22T11:56:57;26.50;1.00
9699;DHT22;10089;47.876;8.346;2023-06-22T11:59:23;26.60;3.80
9699;DHT22;10089;47.876;8.346;2023-06-22T12:01:49;26.70;1.00
9699;DHT22;10089;47.876;8.346;2023-06-22T12:04:25;26.80;99.90
9699;DHT22;10089;47.876;8.346;2023-06-22T12:06:51;26.90;1.00
9699;DHT22;10089;47.876;8.346;2023-06-22T12:09:17;27.90;1.00
9699;DHT22;10089;47.876;8.346;2023-06-22T12:11:43;28.70;1.00
9699;DHT22;10089;47.876;8.346;2023-06-22T12:14:09;27.90;1.00
9699;DHT22;10089;47.876;8.346;2023-06-22T12:16:34;29.10;1.00
9699;DHT22;10089;47.876;8.346;2023-06-22T12:19:00;29.50;99.90
9699;DHT22;10089;47.876;8.346;2023-06-22T12:21:26;28.30;1.00
9699;DHT22;10089;47.876;8.346;2023-06-22T12:23:52;29.40;99.90
9699;DHT22;10089;47.876;8.346;2023-06-22T12:26:18;29.40;99.90
9699;DHT22;10089;47.876;8.346;2023-06-22T12:28:47;29.30;99.90
9699;DHT22;10089;47.876;8.346;2023-06-22T12:31:14;29.50;99.90
9699;DHT22;10089;47.876;8.346;2023-06-22T12:33:39;29.00;99.90
9699;DHT22;10089;47.876;8.346;2023-06-22T12:36:05;28.80;99.90
9699;DHT22;10089;47.876;8.346;2023-06-22T12:38:34;28.00;99.90
9699;DHT22;10089;47.876;8.346;2023-06-22T12:40:59;28.10;99.90
9699;DHT22;10089;47.876;8.346;2023-06-22T12:43:25;28.40;99.90
9699;DHT22;10089;47.876;8.346;2023-06-22T12:45:51;27.70;99.90
9699;DHT22;10089;47.876;8.346;2023-06-22T12:48:16;29.10;99.90
9699;DHT22;10089;47.876;8.346;2023-06-22T12:50:42;27.50;99.90
9699;DHT22;10089;47.876;8.346;2023-06-22T12:53:08;27.80;99.90
9699;DHT22;10089;47.876;8.346;2023-06-22T12:55:34;27.60;99.90
9699;DHT22;10089;47.876;8.346;2023-06-22T12:57:59;27.50;99.90
9699;DHT22;10089;47.876;8.346;2023-06-22T13:00:25;25.80;99.90
9699;DHT22;10089;47.876;8.346;2023-06-22T13:02:51;26.90;99.90
9699;DHT22;10089;47.876;8.346;2023-06-22T13:05:16;26.70;99.90
9699;DHT22;10089;47.876;8.346;2023-06-22T13:07:42;26.80;99.90
9699;DHT22;10089;47.876;8.346;2023-06-22T13:10:10;26.60;99.90
9699;DHT22;10089;47.876;8.346;2023-06-22T13:12:36;26.60;99.90
9699;DHT22;10089;47.876;8.346;2023-06-22T13:15:02;26.70;99.90
9699;DHT22;10089;47.876;8.346;2023-06-22T13:17:28;26.60;99.90
9699;DHT22;10089;47.876;8.346;2023-06-22T13:19:54;26.70;99.90
9699;DHT22;10089;47.876;8.346;2023-06-22T13:22:31;26.90;99.90
9699;DHT22;10089;47.876;8.346;2023-06-22T13:25:00;27.10;99.90
9699;DHT22;10089;47.876;8.346;2023-06-22T13:27:25;27.20;99.90
9699;DHT22;10089;47.876;8.346;2023-06-22T13:29:52;27.50;99.90
9699;DHT22;10089;47.876;8.346;2023-06-22T13:32:17;27.80;99.90
9699;DHT22;10089;47.876;8.346;2023-06-22T13:34:43;27.80;99.90
9699;DHT22;10089;47.876;8.346;2023-06-22T13:37:09;27.60;99.90
9699;DHT22;10089;47.876;8.346;2023-06-22T13:39:35;27.90;99.90
9699;DHT22;10089;47.876;8.346;2023-06-22T13:42:00;27.90;99.90
9699;DHT22;10089;47.876;8.346;2023-06-22T13:44:26;27.40;99.90
9699;DHT22;10089;47.876;8.346;2023-06-22T13:46:54;27.20;99.90
9699;DHT22;10089;47.876;8.346;2023-06-22T13:49:20;27.30;99.90
9699;DHT22;10089;47.876;8.346;2023-06-22T13:51:47;27.40;99.90
9699;DHT22;10089;47.876;8.346;2023-06-22T13:54:16;27.30;99.90
9699;DHT22;10089;47.876;8.346;2023-06-22T13:56:42;26.90;99.90
9699;DHT22;10089;47.876;8.346;2023-06-22T13:59:08;26.70;99.90
9699;DHT22;10089;47.876;8.346;2023-06-22T14:01:35;26.60;99.90
9699;DHT22;10089;47.876;8.346;2023-06-22T14:04:01;26.50;99.90
9699;DHT22;10089;47.876;8.346;2023-06-22T14:06:27;26.60;99.90
9699;DHT22;10089;47.876;8.346;2023-06-22T14:08:54;26.80;99.90
9699;DHT22;10089;47.876;8.346;2023-06-22T14:11:20;26.70;99.90
9699;DHT22;10089;47.876;8.346;2023-06-22T14:13:45;27.20;99.90
9699;DHT22;10089;47.876;8.346;2023-06-22T14:16:11;26.90;99.90
9699;DHT22;10089;47.876;8.346;2023-06-22T14:18:36;26.70;99.90
9699;DHT22;10089;47.876;8.346;2023-06-22T14:21:02;26.50;99.90
9699;DHT22;10089;47.876;8.346;2023-06-22T14:23:28;26.40;99.90
9699;DHT22;10089;47.876;8.346;2023-06-22T14:25:54;26.30;1.00
9699;DHT22;10089;47.876;8.346;2023-06-22T14:28:19;26.10;1.00
9699;DHT22;10089;47.876;8.346;2023-06-22T14:30:45;25.90;1.00
9699;DHT22;10089;47.876;8.346;2023-06-22T14:33:12;25.90;99.90
9699;DHT22;10089;47.876;8.346;2023-06-22T14:35:37;25.80;99.90
9699;DHT22;10089;47.876;8.346;2023-06-22T14:38:03;25.80;1.00
9699;DHT22;10089;47.876;8.346;2023-06-22T14:40:28;25.70;1.00
9699;DHT22;10089;47.876;8.346;2023-06-22T14:42:54;25.60;1.00
9699;DHT22;10089;47.876;8.346;2023-06-22T14:45:23;25.60;1.00
9699;DHT22;10089;47.876;8.346;2023-06-22T14:47:49;25.70;1.00
9699;DHT22;10089;47.876;8.346;2023-06-22T14:50:14;25.70;1.00
9699;DHT22;10089;47.876;8.346;2023-06-22T14:52:40;25.80;1.00
9699;DHT22;10089;47.876;8.346;2023-06-22T14:55:06;25.90;1.00
9699;DHT22;10089;47.876;8.346;2023-06-22T14:57:31;26.00;99.90
9699;DHT22;10089;47.876;8.346;2023-06-22T14:59:57;26.00;1.00
9699;DHT22;10089;47.876;8.346;2023-06-22T15:02:23;26.00;1.00
9699;DHT22;10089;47.876;8.346;2023-06-22T15:04:48;25.70;1.00
9699;DHT22;10089;47.876;8.346;2023-06-22T15:07:14;25.60;1.00
9699;DHT22;10089;47.876;8.346;2023-06-22T15:09:40;25.40;1.00
9699;DHT22;10089;47.876;8.346;2023-06-22T15:12:08;25.00;1.00
9699;DHT22;10089;47.876;8.346;2023-06-22T15:14:40;25.00;1.00
9699;DHT22;10089;47.876;8.346;2023-06-22T15:17:09;25.00;1.00
9699;DHT22;10089;47.876;8.346;2023-06-22T15:19:36;25.00;1.00
9699;DHT22;10089;47.876;8.346;2023-06-22T15:22:07;24.90;1.00
9699;DHT22;10089;47.876;8.346;2023-06-22T15:24:33;24.90;1.00
9699;DHT22;10089;47.876;8.346;2023-06-22T15:27:00;24.80;1.00
9699;DHT22;10089;47.876;8.346;2023-06-22T15:29:25;24.90;1.00
9699;DHT22;10089;47.876;8.346;2023-06-22T15:31:52;25.10;1.00
9699;DHT22;10089;47.876;8.346;2023-06-22T15:34:17;25.00;1.00
9699;DHT22;10089;47.876;8.346;2023-06-22T15:36:43;25.00;1.00
9699;DHT22;10089;47.876;8.346;2023-06-22T15:39:09;24.90;1.00
9699;DHT22;10089;47.876;8.346;2023-06-22T15:41:35;24.70;1.00
9699;DHT22;10089;47.876;8.346;2023-06-22T15:44:00;24.80;99.90
9699;DHT22;10089;47.876;8.346;2023-06-22T15:46:26;24.60;99.90
9699;DHT22;10089;47.876;8.346;2023-06-22T15:48:52;24.50;99.90
9699;DHT22;10089;47.876;8.346;2023-06-22T15:51:17;24.40;99.90
9699;DHT22;10089;47.876;8.346;2023-06-22T15:53:43;24.90;99.90
9699;DHT22;10089;47.876;8.346;2023-06-22T15:56:08;24.10;1.00
9699;DHT22;10089;47.876;8.346;2023-06-22T15:58:38;23.90;1.00
9699;DHT22;10089;47.876;8.346;2023-06-22T16:01:04;23.40;1.00
9699;DHT22;10089;47.876;8.346;2023-06-22T16:03:31;23.10;99.90
9699;DHT22;10089;47.876;8.346;2023-06-22T16:05:57;22.60;1.00
9699;DHT22;10089;47.876;8.346;2023-06-22T16:08:23;22.10;99.90